sensor_id;sensor_type;location;lat;lon;timestamp;P1;durP1;ratioP1;P2;durP2;ratioP2
3341;SDS011;1684;50.748;6.154;2023-02-01T00:01:28;53.70;;;21.53;;
3341;SDS011;1684;50.748;6.154;2023-02-01T00:03:56;39.73;;;23.03;;
3341;SDS011;1684;50.748;6.154;2023-02-01T00:06:28;35.07;;;21.77;;
3341;SDS011;1684;50.748;6.154;2023-02-01T00:08:56;49.53;;;25.00;;
3341;SDS011;1684;50.748;6.154;2023-02-01T00:11:24;51.17;;;20.67;;
3341;SDS011;1684;50.748;6.154;2023-02-01T00:13:53;45.50;;;22.30;;
3341;SDS011;1684;50.748;6.154;2023-02-01T00:16:23;55.80;;;21.47;;
3341;SDS011;1684;50.748;6.154;2023-02-01T00:18:56;39.70;;;20.87;;
3341;SDS011;1684;50.748;6.154;2023-02-01T00:21:25;45.37;;;22.43;;
3341;SDS011;1684;50.748;6.154;2023-02-01T00:23:53;48.23;;;22.40;;
3341;SDS011;1684;50.748;6.154;2023-02-01T00:26:22;43.37;;;20.20;;
3341;SDS011;1684;50.748;6.154;2023-02-01T00:28:53;47.30;;;23.13;;
3341;SDS011;1684;50.748;6.154;2023-02-01T00:31:22;29.63;;;13.87;;
3341;SDS011;1684;50.748;6.154;2023-02-01T00:33:54;25.77;;;11.17;;
3341;SDS011;1684;50.748;6.154;2023-02-01T00:36:23;50.60;;;24.83;;
3341;SDS011;1684;50.748;6.154;2023-02-01T00:38:51;39.20;;;21.40;;
3341;SDS011;1684;50.748;6.154;2023-02-01T00:43:51;52.00;;;22.10;;
3341;SDS011;1684;50.748;6.154;2023-02-01T00:46:20;40.17;;;17.97;;
3341;SDS011;1684;50.748;6.154;2023-02-01T00:48:49;47.83;;;21.43;;
3341;SDS011;1684;50.748;6.154;2023-02-01T00:51:19;50.03;;;20.67;;
3341;SDS011;1684;50.748;6.154;2023-02-01T00:53:48;46.00;;;21.53;;
3341;SDS011;1684;50.748;6.154;2023-02-01T00:56:16;47.33;;;22.07;;
3341;SDS011;1684;50.748;6.154;2023-02-01T00:58:45;34.37;;;14.13;;
3341;SDS011;1684;50.748;6.154;2023-02-01T01:01:26;31.10;;;18.23;;
3341;SDS011;1684;50.748;6.154;2023-02-01T01:03:55;41.70;;;16.37;;
3341;SDS011;1684;50.748;6.154;2023-02-01T01:06:26;49.53;;;20.10;;
3341;SDS011;1684;50.748;6.154;2023-02-01T01:08:55;42.70;;;19.80;;
3341;SDS011;1684;50.748;6.154;2023-02-01T01:11:24;50.00;;;20.90;;
3341;SDS011;1684;50.748;6.154;2023-02-01T01:13:55;40.30;;;19.30;;
3341;SDS011;1684;50.748;6.154;2023-02-01T01:16:25;43.37;;;17.30;;
3341;SDS011;1684;50.748;6.154;2023-02-01T01:18:54;40.43;;;20.47;;
3341;SDS011;1684;50.748;6.154;2023-02-01T01:21:22;45.60;;;15.87;;
3341;SDS011;1684;50.748;6.154;2023-02-01T01:23:52;33.27;;;17.80;;
3341;SDS011;1684;50.748;6.154;2023-02-01T01:26:21;34.90;;;17.30;;
3341;SDS011;1684;50.748;6.154;2023-02-01T01:28:50;36.40;;;16.57;;
3341;SDS011;1684;50.748;6.154;2023-02-01T01:31:19;41.83;;;17.90;;
3341;SDS011;1684;50.748;6.154;2023-02-01T01:33:48;35.93;;;16.30;;
3341;SDS011;1684;50.748;6.154;2023-02-01T01:36:17;31.43;;;15.60;;
3341;SDS011;1684;50.748;6.154;2023-02-01T01:38:45;35.03;;;17.40;;
3341;SDS011;1684;50.748;6.154;2023-02-01T01:41:17;40.43;;;17.23;;
3341;SDS011;1684;50.748;6.154;2023-02-01T01:43:46;41.57;;;15.50;;
3341;SDS011;1684;50.748;6.154;2023-02-01T01:46:15;32.17;;;16.10;;
3341;SDS011;1684;50.748;6.154;2023-02-01T01:48:44;39.33;;;16.00;;
3341;SDS011;1684;50.748;6.154;2023-02-01T01:51:13;43.50;;;16.97;;
3341;SDS011;1684;50.748;6.154;2023-02-01T01:53:47;43.43;;;16.87;;
3341;SDS011;1684;50.748;6.154;2023-02-01T01:56:17;48.90;;;17.00;;
3341;SDS011;1684;50.748;6.154;2023-02-01T01:58:45;41.60;;;18.10;;
3341;SDS011;1684;50.748;6.154;2023-02-01T02:01:14;44.37;;;15.80;;
3341;SDS011;1684;50.748;6.154;2023-02-01T02:03:43;37.07;;;17.50;;
3341;SDS011;1684;50.748;6.154;2023-02-01T02:06:13;36.27;;;16.00;;
3341;SDS011;1684;50.748;6.154;2023-02-01T02:08:44;38.07;;;15.57;;
3341;SDS011;1684;50.748;6.154;2023-02-01T02:11:14;38.63;;;17.17;;
3341;SDS011;1684;50.748;6.154;2023-02-01T02:13:46;37.83;;;17.63;;
3341;SDS011;1684;50.748;6.154;2023-02-01T02:16:19;36.43;;;13.90;;
3341;SDS011;1684;50.748;6.154;2023-02-01T02:18:54;36.17;;;15.00;;
3341;SDS011;1684;50.748;6.154;2023-02-01T02:21:30;42.63;;;15.30;;
3341;SDS011;1684;50.748;6.154;2023-02-01T02:24:09;36.30;;;14.77;;
3341;SDS011;1684;50.748;6.154;2023-02-01T02:26:49;38.40;;;15.10;;
3341;SDS011;1684;50.748;6.154;2023-02-01T02:29:28;46.20;;;16.57;;
3341;SDS011;1684;50.748;6.154;2023-02-01T02:32:03;36.90;;;14.90;;
3341;SDS011;1684;50.748;6.154;2023-02-01T02:34:52;41.20;;;13.70;;
3341;SDS011;1684;50.748;6.154;2023-02-01T02:37:23;31.70;;;13.87;;
3341;SDS011;1684;50.748;6.154;2023-02-01T02:39:56;31.30;;;14.10;;
3341;SDS011;1684;50.748;6.154;2023-02-01T02:42:27;45.27;;;14.60;;
3341;SDS011;1684;50.748;6.154;2023-02-01T02:45:17;39.30;;;13.23;;
3341;SDS011;1684;50.748;6.154;2023-02-01T02:48:06;37.33;;;13.47;;
3341;SDS011;1684;50.748;6.154;2023-02-01T02:50:40;40.20;;;16.30;;
3341;SDS011;1684;50.748;6.154;2023-02-01T02:53:28;38.40;;;14.40;;
3341;SDS011;1684;50.748;6.154;2023-02-01T02:56:18;37.00;;;15.87;;
3341;SDS011;1684;50.748;6.154;2023-02-01T02:59:05;37.30;;;14.03;;
3341;SDS011;1684;50.748;6.154;2023-02-01T03:01:52;33.30;;;13.87;;
3341;SDS011;1684;50.748;6.154;2023-02-01T03:04:39;42.63;;;17.50;;
3341;SDS011;1684;50.748;6.154;2023-02-01T03:07:13;20.07;;;9.57;;
3341;SDS011;1684;50.748;6.154;2023-02-01T03:09:43;42.90;;;15.83;;
3341;SDS011;1684;50.748;6.154;2023-02-01T03:12:12;47.23;;;17.07;;
3341;SDS011;1684;50.748;6.154;2023-02-01T03:15:00;34.30;;;13.50;;
3341;SDS011;1684;50.748;6.154;2023-02-01T03:17:32;28.53;;;13.77;;
3341;SDS011;1684;50.748;6.154;2023-02-01T03:20:02;33.20;;;14.50;;
3341;SDS011;1684;50.748;6.154;2023-02-01T03:22:33;43.40;;;16.37;;
3341;SDS011;1684;50.748;6.154;2023-02-01T03:25:02;35.27;;;14.90;;
3341;SDS011;1684;50.748;6.154;2023-02-01T03:27:32;26.30;;;12.40;;
3341;SDS011;1684;50.748;6.154;2023-02-01T03:30:02;33.30;;;12.17;;
3341;SDS011;1684;50.748;6.154;2023-02-01T03:32:32;29.20;;;14.70;;
3341;SDS011;1684;50.748;6.154;2023-02-01T03:35:20;30.17;;;16.23;;
3341;SDS011;1684;50.748;6.154;2023-02-01T03:37:55;35.40;;;14.77;;
3341;SDS011;1684;50.748;6.154;2023-02-01T03:40:24;37.03;;;15.37;;
3341;SDS011;1684;50.748;6.154;2023-02-01T03:42:54;33.50;;;15.20;;
3341;SDS011;1684;50.748;6.154;2023-02-01T03:45:24;36.43;;;12.70;;
3341;SDS011;1684;50.748;6.154;2023-02-01T03:47:55;25.63;;;11.53;;
3341;SDS011;1684;50.748;6.154;2023-02-01T03:50:24;32.67;;;11.53;;
3341;SDS011;1684;50.748;6.154;2023-02-01T03:52:55;33.27;;;11.70;;
3341;SDS011;1684;50.748;6.154;2023-02-01T03:55:25;30.80;;;11.70;;
3341;SDS011;1684;50.748;6.154;2023-02-01T03:57:57;26.63;;;10.20;;
3341;SDS011;1684;50.748;6.154;2023-02-01T04:00:26;24.03;;;10.33;;
3341;SDS011;1684;50.748;6.154;2023-02-01T04:02:55;26.27;;;8.50;;
3341;SDS011;1684;50.748;6.154;2023-02-01T04:05:23;27.67;;;11.47;;
3341;SDS011;1684;50.748;6.154;2023-02-01T04:07:52;22.60;;;7.57;;
3341;SDS011;1684;50.748;6.154;2023-02-01T04:10:21;22.67;;;8.70;;
3341;SDS011;1684;50.748;6.154;2023-02-01T04:12:50;26.50;;;8.00;;
3341;SDS011;1684;50.748;6.154;2023-02-01T04:15:19;22.83;;;8.07;;
3341;SDS011;1684;50.748;6.154;2023-02-01T04:17:48;17.47;;;6.83;;
3341;SDS011;1684;50.748;6.154;2023-02-01T04:20:17;23.77;;;6.70;;
3341;SDS011;1684;50.748;6.154;2023-02-01T04:22:46;16.90;;;6.60;;
3341;SDS011;1684;50.748;6.154;2023-02-01T04:25:14;31.33;;;6.47;;
3341;SDS011;1684;50.748;6.154;2023-02-01T04:27:44;16.43;;;6.70;;
3341;SDS011;1684;50.748;6.154;2023-02-01T04:30:13;16.17;;;5.33;;
3341;SDS011;1684;50.748;6.154;2023-02-01T04:32:41;12.20;;;5.67;;
3341;SDS011;1684;50.748;6.154;2023-02-01T04:35:10;26.80;;;6.50;;
3341;SDS011;1684;50.748;6.154;2023-02-01T04:37:38;19.83;;;6.17;;
3341;SDS011;1684;50.748;6.154;2023-02-01T04:40:07;12.30;;;4.83;;
3341;SDS011;1684;50.748;6.154;2023-02-01T04:42:36;15.60;;;6.20;;
3341;SDS011;1684;50.748;6.154;2023-02-01T04:45:06;14.13;;;5.20;;
3341;SDS011;1684;50.748;6.154;2023-02-01T04:47:35;17.03;;;6.50;;
3341;SDS011;1684;50.748;6.154;2023-02-01T04:50:03;20.73;;;5.07;;
3341;SDS011;1684;50.748;6.154;2023-02-01T04:52:33;12.17;;;5.03;;
3341;SDS011;1684;50.748;6.154;2023-02-01T04:55:02;14.10;;;4.93;;
3341;SDS011;1684;50.748;6.154;2023-02-01T04:57:30;16.63;;;5.53;;
3341;SDS011;1684;50.748;6.154;2023-02-01T04:59:58;16.67;;;5.00;;
3341;SDS011;1684;50.748;6.154;2023-02-01T05:02:28;15.57;;;4.63;;
3341;SDS011;1684;50.748;6.154;2023-02-01T05:04:58;17.97;;;5.20;;
3341;SDS011;1684;50.748;6.154;2023-02-01T05:07:26;17.93;;;4.30;;
3341;SDS011;1684;50.748;6.154;2023-02-01T05:09:55;11.60;;;4.60;;
3341;SDS011;1684;50.748;6.154;2023-02-01T05:12:23;18.20;;;5.63;;
3341;SDS011;1684;50.748;6.154;2023-02-01T05:15:09;15.63;;;4.57;;
3341;SDS011;1684;50.748;6.154;2023-02-01T05:17:39;16.90;;;5.43;;
3341;SDS011;1684;50.748;6.154;2023-02-01T05:20:08;23.80;;;4.70;;
3341;SDS011;1684;50.748;6.154;2023-02-01T05:22:36;19.80;;;4.57;;
3341;SDS011;1684;50.748;6.154;2023-02-01T05:25:05;23.47;;;6.53;;
3341;SDS011;1684;50.748;6.154;2023-02-01T05:27:34;11.67;;;4.00;;
3341;SDS011;1684;50.748;6.154;2023-02-01T05:30:03;16.10;;;4.70;;
3341;SDS011;1684;50.748;6.154;2023-02-01T05:32:33;17.23;;;5.27;;
3341;SDS011;1684;50.748;6.154;2023-02-01T05:35:02;15.17;;;5.30;;
3341;SDS011;1684;50.748;6.154;2023-02-01T05:37:31;13.87;;;4.90;;
3341;SDS011;1684;50.748;6.154;2023-02-01T05:40:01;15.13;;;5.10;;
3341;SDS011;1684;50.748;6.154;2023-02-01T05:42:30;13.63;;;4.73;;
3341;SDS011;1684;50.748;6.154;2023-02-01T05:44:58;15.73;;;5.47;;
3341;SDS011;1684;50.748;6.154;2023-02-01T05:47:26;16.43;;;6.33;;
3341;SDS011;1684;50.748;6.154;2023-02-01T05:49:55;20.23;;;5.97;;
3341;SDS011;1684;50.748;6.154;2023-02-01T05:52:24;11.87;;;4.03;;
3341;SDS011;1684;50.748;6.154;2023-02-01T05:54:53;20.83;;;5.70;;
3341;SDS011;1684;50.748;6.154;2023-02-01T05:57:24;13.23;;;4.57;;
3341;SDS011;1684;50.748;6.154;2023-02-01T05:59:53;15.03;;;4.83;;
3341;SDS011;1684;50.748;6.154;2023-02-01T06:02:21;22.20;;;5.80;;
3341;SDS011;1684;50.748;6.154;2023-02-01T06:04:50;17.87;;;6.33;;
3341;SDS011;1684;50.748;6.154;2023-02-01T06:07:19;14.53;;;5.17;;
3341;SDS011;1684;50.748;6.154;2023-02-01T06:09:50;19.50;;;4.90;;
3341;SDS011;1684;50.748;6.154;2023-02-01T06:12:18;12.47;;;4.50;;
3341;SDS011;1684;50.748;6.154;2023-02-01T06:14:46;15.03;;;5.00;;
3341;SDS011;1684;50.748;6.154;2023-02-01T06:17:14;13.53;;;5.10;;
3341;SDS011;1684;50.748;6.154;2023-02-01T06:19:43;14.83;;;4.30;;
3341;SDS011;1684;50.748;6.154;2023-02-01T06:22:11;14.73;;;5.30;;
3341;SDS011;1684;50.748;6.154;2023-02-01T06:24:40;13.23;;;4.63;;
3341;SDS011;1684;50.748;6.154;2023-02-01T06:27:09;14.97;;;5.60;;
3341;SDS011;1684;50.748;6.154;2023-02-01T06:29:39;23.67;;;4.33;;
3341;SDS011;1684;50.748;6.154;2023-02-01T06:32:07;19.60;;;5.30;;
3341;SDS011;1684;50.748;6.154;2023-02-01T06:34:36;12.27;;;4.83;;
3341;SDS011;1684;50.748;6.154;2023-02-01T06:37:05;10.33;;;5.00;;
3341;SDS011;1684;50.748;6.154;2023-02-01T06:39:34;21.10;;;4.50;;
3341;SDS011;1684;50.748;6.154;2023-02-01T06:42:02;18.30;;;5.00;;
3341;SDS011;1684;50.748;6.154;2023-02-01T06:44:32;17.47;;;4.13;;
3341;SDS011;1684;50.748;6.154;2023-02-01T06:47:00;23.77;;;5.30;;
3341;SDS011;1684;50.748;6.154;2023-02-01T06:49:34;19.90;;;5.17;;
3341;SDS011;1684;50.748;6.154;2023-02-01T06:52:02;14.23;;;4.87;;
3341;SDS011;1684;50.748;6.154;2023-02-01T06:54:31;16.63;;;5.07;;
3341;SDS011;1684;50.748;6.154;2023-02-01T06:57:00;16.13;;;5.30;;
3341;SDS011;1684;50.748;6.154;2023-02-01T06:59:28;17.80;;;4.60;;
3341;SDS011;1684;50.748;6.154;2023-02-01T07:01:59;19.90;;;5.17;;
3341;SDS011;1684;50.748;6.154;2023-02-01T07:04:27;10.70;;;3.33;;
3341;SDS011;1684;50.748;6.154;2023-02-01T07:06:56;20.57;;;5.93;;
3341;SDS011;1684;50.748;6.154;2023-02-01T07:09:25;18.00;;;5.53;;
3341;SDS011;1684;50.748;6.154;2023-02-01T07:11:53;11.77;;;4.53;;
3341;SDS011;1684;50.748;6.154;2023-02-01T07:14:22;16.47;;;5.20;;
3341;SDS011;1684;50.748;6.154;2023-02-01T07:16:51;15.90;;;5.10;;
3341;SDS011;1684;50.748;6.154;2023-02-01T07:19:20;13.80;;;4.50;;
3341;SDS011;1684;50.748;6.154;2023-02-01T07:21:50;17.70;;;5.83;;
3341;SDS011;1684;50.748;6.154;2023-02-01T07:24:18;20.03;;;4.80;;
3341;SDS011;1684;50.748;6.154;2023-02-01T07:26:46;23.93;;;6.90;;
3341;SDS011;1684;50.748;6.154;2023-02-01T07:29:17;20.67;;;5.03;;
3341;SDS011;1684;50.748;6.154;2023-02-01T07:31:45;17.00;;;4.27;;
3341;SDS011;1684;50.748;6.154;2023-02-01T07:34:14;6.83;;;2.90;;
3341;SDS011;1684;50.748;6.154;2023-02-01T07:36:44;19.47;;;6.20;;
3341;SDS011;1684;50.748;6.154;2023-02-01T07:39:16;22.87;;;5.50;;
3341;SDS011;1684;50.748;6.154;2023-02-01T07:41:45;20.30;;;6.30;;
3341;SDS011;1684;50.748;6.154;2023-02-01T07:44:17;14.80;;;4.90;;
3341;SDS011;1684;50.748;6.154;2023-02-01T07:46:50;15.23;;;5.67;;
3341;SDS011;1684;50.748;6.154;2023-02-01T07:49:18;16.23;;;6.40;;
3341;SDS011;1684;50.748;6.154;2023-02-01T07:51:52;15.83;;;4.97;;
3341;SDS011;1684;50.748;6.154;2023-02-01T07:54:21;22.03;;;4.80;;
3341;SDS011;1684;50.748;6.154;2023-02-01T07:56:49;23.00;;;5.07;;
3341;SDS011;1684;50.748;6.154;2023-02-01T07:59:17;17.53;;;5.07;;
3341;SDS011;1684;50.748;6.154;2023-02-01T08:01:46;19.90;;;4.77;;
3341;SDS011;1684;50.748;6.154;2023-02-01T08:04:13;14.30;;;5.27;;
3341;SDS011;1684;50.748;6.154;2023-02-01T08:06:42;15.87;;;4.60;;
3341;SDS011;1684;50.748;6.154;2023-02-01T08:09:11;12.43;;;4.40;;
3341;SDS011;1684;50.748;6.154;2023-02-01T08:11:40;19.93;;;5.07;;
3341;SDS011;1684;50.748;6.154;2023-02-01T08:14:09;38.93;;;5.00;;
3341;SDS011;1684;50.748;6.154;2023-02-01T08:16:38;18.43;;;5.47;;
3341;SDS011;1684;50.748;6.154;2023-02-01T08:19:09;10.57;;;4.10;;
3341;SDS011;1684;50.748;6.154;2023-02-01T08:21:37;17.97;;;3.67;;
3341;SDS011;1684;50.748;6.154;2023-02-01T08:24:06;10.67;;;4.90;;
3341;SDS011;1684;50.748;6.154;2023-02-01T08:26:37;23.53;;;6.37;;
3341;SDS011;1684;50.748;6.154;2023-02-01T08:29:06;19.37;;;5.20;;
3341;SDS011;1684;50.748;6.154;2023-02-01T08:31:34;15.50;;;6.70;;
3341;SDS011;1684;50.748;6.154;2023-02-01T08:34:07;17.50;;;7.00;;
3341;SDS011;1684;50.748;6.154;2023-02-01T08:36:38;22.83;;;5.33;;
3341;SDS011;1684;50.748;6.154;2023-02-01T08:39:08;11.47;;;5.17;;
3341;SDS011;1684;50.748;6.154;2023-02-01T08:41:37;15.27;;;4.73;;
3341;SDS011;1684;50.748;6.154;2023-02-01T08:44:08;12.87;;;4.23;;
3341;SDS011;1684;50.748;6.154;2023-02-01T08:46:37;20.50;;;4.80;;
3341;SDS011;1684;50.748;6.154;2023-02-01T08:49:06;19.20;;;5.30;;
3341;SDS011;1684;50.748;6.154;2023-02-01T08:51:36;13.13;;;4.10;;
3341;SDS011;1684;50.748;6.154;2023-02-01T08:54:05;21.57;;;6.17;;
3341;SDS011;1684;50.748;6.154;2023-02-01T08:56:33;14.93;;;5.60;;
3341;SDS011;1684;50.748;6.154;2023-02-01T08:59:03;16.00;;;3.97;;
3341;SDS011;1684;50.748;6.154;2023-02-01T09:01:31;16.90;;;4.67;;
3341;SDS011;1684;50.748;6.154;2023-02-01T09:04:00;22.23;;;5.43;;
3341;SDS011;1684;50.748;6.154;2023-02-01T09:06:30;15.23;;;4.80;;
3341;SDS011;1684;50.748;6.154;2023-02-01T09:08:59;16.47;;;4.60;;
3341;SDS011;1684;50.748;6.154;2023-02-01T09:11:27;18.43;;;5.43;;
3341;SDS011;1684;50.748;6.154;2023-02-01T09:13:57;16.13;;;4.90;;
3341;SDS011;1684;50.748;6.154;2023-02-01T09:16:27;15.70;;;6.40;;
3341;SDS011;1684;50.748;6.154;2023-02-01T09:18:55;24.20;;;6.53;;
3341;SDS011;1684;50.748;6.154;2023-02-01T09:21:44;21.20;;;4.70;;
3341;SDS011;1684;50.748;6.154;2023-02-01T09:24:12;21.80;;;5.33;;
3341;SDS011;1684;50.748;6.154;2023-02-01T09:26:41;16.93;;;4.27;;
3341;SDS011;1684;50.748;6.154;2023-02-01T09:29:09;16.70;;;5.03;;
3341;SDS011;1684;50.748;6.154;2023-02-01T09:31:39;15.20;;;5.30;;
3341;SDS011;1684;50.748;6.154;2023-02-01T09:34:24;19.23;;;4.50;;
3341;SDS011;1684;50.748;6.154;2023-02-01T09:36:53;16.33;;;5.57;;
3341;SDS011;1684;50.748;6.154;2023-02-01T09:39:21;13.90;;;4.40;;
3341;SDS011;1684;50.748;6.154;2023-02-01T09:41:51;19.90;;;6.83;;
3341;SDS011;1684;50.748;6.154;2023-02-01T09:44:29;13.67;;;4.97;;
3341;SDS011;1684;50.748;6.154;2023-02-01T09:47:11;32.23;;;7.13;;
3341;SDS011;1684;50.748;6.154;2023-02-01T09:49:43;18.30;;;4.93;;
3341;SDS011;1684;50.748;6.154;2023-02-01T09:52:14;15.47;;;6.40;;
3341;SDS011;1684;50.748;6.154;2023-02-01T09:54:44;13.73;;;5.07;;
3341;SDS011;1684;50.748;6.154;2023-02-01T09:57:16;23.80;;;6.37;;
3341;SDS011;1684;50.748;6.154;2023-02-01T09:59:49;19.37;;;6.03;;
3341;SDS011;1684;50.748;6.154;2023-02-01T10:02:21;14.83;;;6.20;;
3341;SDS011;1684;50.748;6.154;2023-02-01T10:04:52;14.30;;;5.93;;
3341;SDS011;1684;50.748;6.154;2023-02-01T10:07:24;12.50;;;5.33;;
3341;SDS011;1684;50.748;6.154;2023-02-01T10:09:57;18.93;;;5.43;;
3341;SDS011;1684;50.748;6.154;2023-02-01T10:15:24;19.33;;;5.73;;
3341;SDS011;1684;50.748;6.154;2023-02-01T10:17:59;16.97;;;5.17;;
3341;SDS011;1684;50.748;6.154;2023-02-01T10:20:30;25.13;;;5.83;;
3341;SDS011;1684;50.748;6.154;2023-02-01T10:23:07;12.50;;;5.73;;
3341;SDS011;1684;50.748;6.154;2023-02-01T10:26:00;10.67;;;5.07;;
3341;SDS011;1684;50.748;6.154;2023-02-01T10:28:32;12.73;;;5.47;;
3341;SDS011;1684;50.748;6.154;2023-02-01T10:31:02;17.33;;;4.80;;
3341;SDS011;1684;50.748;6.154;2023-02-01T10:33:33;19.97;;;5.37;;
3341;SDS011;1684;50.748;6.154;2023-02-01T10:36:03;15.40;;;5.23;;
3341;SDS011;1684;50.748;6.154;2023-02-01T10:38:34;15.80;;;4.20;;
3341;SDS011;1684;50.748;6.154;2023-02-01T10:41:02;20.70;;;4.20;;
3341;SDS011;1684;50.748;6.154;2023-02-01T10:43:32;14.83;;;4.83;;
3341;SDS011;1684;50.748;6.154;2023-02-01T10:46:00;16.10;;;5.00;;
3341;SDS011;1684;50.748;6.154;2023-02-01T10:48:29;32.87;;;6.33;;
3341;SDS011;1684;50.748;6.154;2023-02-01T10:50:58;12.60;;;4.63;;
3341;SDS011;1684;50.748;6.154;2023-02-01T10:53:29;20.80;;;5.90;;
3341;SDS011;1684;50.748;6.154;2023-02-01T10:56:04;12.57;;;3.50;;
3341;SDS011;1684;50.748;6.154;2023-02-01T10:58:33;16.50;;;4.43;;
3341;SDS011;1684;50.748;6.154;2023-02-01T11:01:04;20.63;;;5.10;;
3341;SDS011;1684;50.748;6.154;2023-02-01T11:03:36;15.00;;;4.57;;
3341;SDS011;1684;50.748;6.154;2023-02-01T11:06:10;21.87;;;4.73;;
3341;SDS011;1684;50.748;6.154;2023-02-01T11:08:44;14.47;;;3.67;;
3341;SDS011;1684;50.748;6.154;2023-02-01T11:11:13;14.67;;;5.80;;
3341;SDS011;1684;50.748;6.154;2023-02-01T11:13:43;21.00;;;5.23;;
3341;SDS011;1684;50.748;6.154;2023-02-01T11:16:13;19.07;;;5.37;;
3341;SDS011;1684;50.748;6.154;2023-02-01T11:18:43;15.80;;;4.30;;
3341;SDS011;1684;50.748;6.154;2023-02-01T11:21:13;21.93;;;4.77;;
3341;SDS011;1684;50.748;6.154;2023-02-01T11:23:43;21.90;;;4.63;;
3341;SDS011;1684;50.748;6.154;2023-02-01T11:26:13;13.90;;;5.00;;
3341;SDS011;1684;50.748;6.154;2023-02-01T11:28:44;16.70;;;4.07;;
3341;SDS011;1684;50.748;6.154;2023-02-01T11:31:18;12.83;;;3.90;;
3341;SDS011;1684;50.748;6.154;2023-02-01T11:33:48;16.33;;;4.80;;
3341;SDS011;1684;50.748;6.154;2023-02-01T11:36:20;21.00;;;5.63;;
3341;SDS011;1684;50.748;6.154;2023-02-01T11:38:52;24.20;;;4.93;;
3341;SDS011;1684;50.748;6.154;2023-02-01T11:41:21;18.07;;;6.27;;
3341;SDS011;1684;50.748;6.154;2023-02-01T11:43:51;15.20;;;4.87;;
3341;SDS011;1684;50.748;6.154;2023-02-01T11:46:22;16.80;;;5.13;;
3341;SDS011;1684;50.748;6.154;2023-02-01T11:48:52;12.63;;;4.57;;
3341;SDS011;1684;50.748;6.154;2023-02-01T11:51:29;24.47;;;4.97;;
3341;SDS011;1684;50.748;6.154;2023-02-01T11:54:15;8.63;;;3.30;;
3341;SDS011;1684;50.748;6.154;2023-02-01T11:56:47;13.13;;;3.70;;
3341;SDS011;1684;50.748;6.154;2023-02-01T11:59:22;18.87;;;4.70;;
3341;SDS011;1684;50.748;6.154;2023-02-01T12:04:46;11.40;;;3.93;;
3341;SDS011;1684;50.748;6.154;2023-02-01T12:07:23;10.73;;;3.27;;
3341;SDS011;1684;50.748;6.154;2023-02-01T12:09:57;20.60;;;4.20;;
3341;SDS011;1684;50.748;6.154;2023-02-01T12:12:33;18.43;;;3.20;;
3341;SDS011;1684;50.748;6.154;2023-02-01T12:15:05;11.27;;;3.63;;
3341;SDS011;1684;50.748;6.154;2023-02-01T12:17:42;13.97;;;3.80;;
3341;SDS011;1684;50.748;6.154;2023-02-01T12:20:21;10.17;;;3.90;;
3341;SDS011;1684;50.748;6.154;2023-02-01T12:22:55;14.90;;;3.90;;
3341;SDS011;1684;50.748;6.154;2023-02-01T12:25:38;6.43;;;2.57;;
3341;SDS011;1684;50.748;6.154;2023-02-01T12:28:23;13.73;;;5.13;;
3341;SDS011;1684;50.748;6.154;2023-02-01T12:33:44;13.70;;;3.67;;
3341;SDS011;1684;50.748;6.154;2023-02-01T12:36:16;15.73;;;4.67;;
3341;SDS011;1684;50.748;6.154;2023-02-01T12:38:52;7.83;;;3.23;;
3341;SDS011;1684;50.748;6.154;2023-02-01T12:44:08;17.13;;;4.63;;
3341;SDS011;1684;50.748;6.154;2023-02-01T12:46:40;15.80;;;4.27;;
3341;SDS011;1684;50.748;6.154;2023-02-01T12:49:11;18.60;;;3.23;;
3341;SDS011;1684;50.748;6.154;2023-02-01T12:51:41;16.53;;;3.97;;
3341;SDS011;1684;50.748;6.154;2023-02-01T12:54:14;11.30;;;4.57;;
3341;SDS011;1684;50.748;6.154;2023-02-01T12:56:48;13.33;;;3.63;;
3341;SDS011;1684;50.748;6.154;2023-02-01T12:59:19;12.50;;;4.23;;
3341;SDS011;1684;50.748;6.154;2023-02-01T13:01:49;10.40;;;3.50;;
3341;SDS011;1684;50.748;6.154;2023-02-01T13:04:25;8.30;;;3.27;;
3341;SDS011;1684;50.748;6.154;2023-02-01T13:06:56;11.33;;;4.27;;
3341;SDS011;1684;50.748;6.154;2023-02-01T13:09:29;11.67;;;3.80;;
3341;SDS011;1684;50.748;6.154;2023-02-01T13:11:59;8.93;;;3.40;;
3341;SDS011;1684;50.748;6.154;2023-02-01T13:14:29;9.93;;;3.73;;
3341;SDS011;1684;50.748;6.154;2023-02-01T13:17:02;15.53;;;4.00;;
3341;SDS011;1684;50.748;6.154;2023-02-01T13:19:35;12.40;;;3.57;;
3341;SDS011;1684;50.748;6.154;2023-02-01T13:22:05;10.33;;;2.80;;
3341;SDS011;1684;50.748;6.154;2023-02-01T13:24:37;14.47;;;4.07;;
3341;SDS011;1684;50.748;6.154;2023-02-01T13:27:08;17.73;;;4.20;;
3341;SDS011;1684;50.748;6.154;2023-02-01T13:29:37;15.30;;;3.73;;
3341;SDS011;1684;50.748;6.154;2023-02-01T13:32:16;13.33;;;5.80;;
3341;SDS011;1684;50.748;6.154;2023-02-01T13:38:11;14.73;;;4.47;;
3341;SDS011;1684;50.748;6.154;2023-02-01T13:40:44;14.90;;;3.13;;
3341;SDS011;1684;50.748;6.154;2023-02-01T13:43:13;15.40;;;3.70;;
3341;SDS011;1684;50.748;6.154;2023-02-01T13:45:43;9.27;;;3.80;;
3341;SDS011;1684;50.748;6.154;2023-02-01T13:50:48;16.93;;;4.23;;
3341;SDS011;1684;50.748;6.154;2023-02-01T13:53:18;12.20;;;5.13;;
3341;SDS011;1684;50.748;6.154;2023-02-01T13:55:54;11.30;;;3.37;;
3341;SDS011;1684;50.748;6.154;2023-02-01T13:58:29;8.10;;;3.00;;
3341;SDS011;1684;50.748;6.154;2023-02-01T14:03:44;17.63;;;3.40;;
3341;SDS011;1684;50.748;6.154;2023-02-01T14:09:16;12.13;;;2.50;;
3341;SDS011;1684;50.748;6.154;2023-02-01T14:11:52;11.23;;;2.43;;
3341;SDS011;1684;50.748;6.154;2023-02-01T14:22:51;10.30;;;3.60;;
3341;SDS011;1684;50.748;6.154;2023-02-01T14:25:31;9.87;;;3.40;;
3341;SDS011;1684;50.748;6.154;2023-02-01T14:28:01;8.10;;;3.00;;
3341;SDS011;1684;50.748;6.154;2023-02-01T14:30:38;7.20;;;2.57;;
3341;SDS011;1684;50.748;6.154;2023-02-01T14:33:17;5.77;;;2.73;;
3341;SDS011;1684;50.748;6.154;2023-02-01T14:36:00;8.63;;;2.50;;
3341;SDS011;1684;50.748;6.154;2023-02-01T14:38:30;10.33;;;3.50;;
3341;SDS011;1684;50.748;6.154;2023-02-01T14:44:21;9.30;;;2.73;;
3341;SDS011;1684;50.748;6.154;2023-02-01T14:47:03;12.63;;;3.00;;
3341;SDS011;1684;50.748;6.154;2023-02-01T14:49:33;17.27;;;3.00;;
3341;SDS011;1684;50.748;6.154;2023-02-01T14:52:04;8.90;;;3.30;;
3341;SDS011;1684;50.748;6.154;2023-02-01T14:54:33;8.67;;;2.13;;
3341;SDS011;1684;50.748;6.154;2023-02-01T14:57:02;8.40;;;3.10;;
3341;SDS011;1684;50.748;6.154;2023-02-01T14:59:32;12.03;;;3.10;;
3341;SDS011;1684;50.748;6.154;2023-02-01T15:02:07;8.60;;;2.70;;
3341;SDS011;1684;50.748;6.154;2023-02-01T15:04:43;11.57;;;2.40;;
3341;SDS011;1684;50.748;6.154;2023-02-01T15:07:12;9.70;;;2.30;;
3341;SDS011;1684;50.748;6.154;2023-02-01T15:09:43;6.57;;;2.47;;
3341;SDS011;1684;50.748;6.154;2023-02-01T15:12:15;7.47;;;3.20;;
3341;SDS011;1684;50.748;6.154;2023-02-01T15:14:48;13.70;;;3.13;;
3341;SDS011;1684;50.748;6.154;2023-02-01T15:17:31;10.77;;;2.57;;
3341;SDS011;1684;50.748;6.154;2023-02-01T15:20:00;11.03;;;3.50;;
3341;SDS011;1684;50.748;6.154;2023-02-01T15:22:34;9.70;;;2.87;;
3341;SDS011;1684;50.748;6.154;2023-02-01T15:25:02;11.90;;;2.93;;
3341;SDS011;1684;50.748;6.154;2023-02-01T15:27:36;8.17;;;3.23;;
3341;SDS011;1684;50.748;6.154;2023-02-01T15:30:07;9.93;;;2.83;;
3341;SDS011;1684;50.748;6.154;2023-02-01T15:32:36;13.67;;;3.23;;
3341;SDS011;1684;50.748;6.154;2023-02-01T15:35:05;4.20;;;2.27;;
3341;SDS011;1684;50.748;6.154;2023-02-01T15:37:37;10.10;;;3.50;;
3341;SDS011;1684;50.748;6.154;2023-02-01T15:42:51;13.70;;;3.23;;
3341;SDS011;1684;50.748;6.154;2023-02-01T15:45:22;7.90;;;2.93;;
3341;SDS011;1684;50.748;6.154;2023-02-01T15:47:53;12.97;;;2.90;;
3341;SDS011;1684;50.748;6.154;2023-02-01T15:50:22;8.93;;;3.13;;
3341;SDS011;1684;50.748;6.154;2023-02-01T15:52:52;8.07;;;2.40;;
3341;SDS011;1684;50.748;6.154;2023-02-01T15:55:22;6.63;;;2.70;;
3341;SDS011;1684;50.748;6.154;2023-02-01T15:57:52;12.70;;;3.40;;
3341;SDS011;1684;50.748;6.154;2023-02-01T16:00:22;12.83;;;3.60;;
3341;SDS011;1684;50.748;6.154;2023-02-01T16:02:51;9.93;;;4.33;;
3341;SDS011;1684;50.748;6.154;2023-02-01T16:05:30;8.70;;;2.73;;